RBD weather

Dallas Executive Airport
Dallas, Texas, United States

Public forecast

Using degrees Fahrenheit for public forecast. Weather courtesy of forecast.io.

METAR (pilot weather report)

Retrieved 2019/06/19 08:38 UTC (10 minutes ago):

KRBD 190838Z AUTO 30020G33KT 10SM TSRA SCT027 BKN040 OVC060 23/19 A2988 RMK AO2 PK WND 30038/0827 WSHFT 0811 LTG DSNT ALQDS RAB35 TSB32 P0007 T02330194

TAF (pilot weather forecast)

Closest forecast is Dallas Love Field, 10.0 nm (18.5 km) N. Retrieved 2019/06/19 06:22 UTC (2 hours ago):

TAF KDAL 190520Z 1906/2006 17008KT P6SM BKN300 FM190700 18009KT P6SM VCTS SCT050CB BKN250 TEMPO 1907/1909 30017KT 3SM -TSRA BKN040CB FM191000 19010KT P6SM SCT120 BKN300 FM191500 20016KT P6SM SCT040 FM192200 21015G25KT P6SM VCTS SCT050CB BKN120 FM200300 18009KT P6SM SCT120 BKN250